Hamburg, Minnesota
Current Conditions -  °F | °C
As of 12:15 AM on Monday 22 Dec 2014 (Local Time) from KGYL Reporting Station
Haze Haze  
Wind Chill: 31°   Ceiling: 500
Heat Index: 38°   Visibility: 3mi
Dew Point: 38°   Wind: 12mph
Humidity: 100%   Direction: 140°SE
Pressure: 29.66"   Gusts: NA
Location:  44.73°N, 93.97°W
Report Text: KGYL 220615Z AUTO 14010KT 3SM BR OVC005 04/04 A2966 RMK AO2 T00350035
Loading
Personal Weather Stations






























Interactive Weather Map New forecast layout! Learn more

10-Day Weather Forecast

Advertisements
Track Severe Weather on mobile